createdAt,value
2023-01-28T00:01:32.702Z,0.18
2023-01-28T00:04:04.435Z,0.27
2023-01-28T00:06:39.481Z,0.38
2023-01-28T00:09:13.308Z,0.29
2023-01-28T00:11:43.572Z,0.18
2023-01-28T00:14:14.369Z,0.12
2023-01-28T00:16:46.492Z,0.12
2023-01-28T00:19:16.655Z,0.13
2023-01-28T00:21:47.050Z,0.12
2023-01-28T00:24:19.726Z,0.10
2023-01-28T00:26:50.003Z,0.21
2023-01-28T00:29:20.129Z,0.27
2023-01-28T00:31:50.576Z,0.31
2023-01-28T00:34:21.094Z,0.33
2023-01-28T00:36:57.898Z,0.37
2023-01-28T00:39:30.523Z,0.33
2023-01-28T00:42:00.908Z,0.30
2023-01-28T00:44:32.492Z,0.30
2023-01-28T00:47:02.779Z,0.28
2023-01-28T00:49:32.665Z,0.27
2023-01-28T00:52:03.052Z,0.26
2023-01-28T00:54:36.552Z,0.26
2023-01-28T00:57:08.053Z,0.24
2023-01-28T00:59:38.306Z,0.25
2023-01-28T01:02:15.033Z,0.24
2023-01-28T01:04:54.982Z,0.24
2023-01-28T01:07:34.982Z,0.19
2023-01-28T01:10:09.938Z,0.20
2023-01-28T01:12:41.774Z,0.13
2023-01-28T01:15:13.247Z,0.12
2023-01-28T01:17:45.935Z,0.09
2023-01-28T01:20:18.426Z,0.11
2023-01-28T01:22:49.223Z,0.10
2023-01-28T01:25:22.062Z,0.06
2023-01-28T01:27:53.392Z,0.00
2023-01-28T01:30:23.798Z,-0.11
2023-01-28T01:32:54.060Z,-0.27
2023-01-28T01:35:24.000Z,-0.28
2023-01-28T01:37:54.235Z,-0.31
2023-01-28T01:40:29.619Z,-0.37
2023-01-28T01:43:00.001Z,-0.31
2023-01-28T01:45:34.122Z,-0.27
2023-01-28T01:48:08.679Z,-0.25
2023-01-28T01:50:42.404Z,-0.33
2023-01-28T01:53:19.282Z,-0.38
2023-01-28T01:55:54.426Z,-0.36
2023-01-28T01:58:29.028Z,-0.35
2023-01-28T02:00:58.947Z,-0.33
2023-01-28T02:03:35.176Z,-0.34
2023-01-28T02:06:06.014Z,-0.33
2023-01-28T02:08:36.313Z,-0.32
2023-01-28T02:11:11.142Z,-0.27
2023-01-28T02:13:45.016Z,-0.22
2023-01-28T02:16:15.866Z,-0.19
2023-01-28T02:18:46.179Z,-0.17
2023-01-28T02:21:51.918Z,-0.16
2023-01-28T02:24:59.747Z,-0.13
2023-01-28T02:27:41.008Z,-0.12
2023-01-28T02:30:22.460Z,-0.10
2023-01-28T02:32:56.968Z,-0.09
2023-01-28T02:35:34.054Z,-0.07
2023-01-28T02:38:08.719Z,-0.08
2023-01-28T02:41:02.210Z,-0.08
2023-01-28T02:43:36.897Z,-0.07
2023-01-28T02:46:33.415Z,-0.08
2023-01-28T02:49:04.526Z,-0.07
2023-01-28T02:51:48.928Z,-0.10
2023-01-28T02:54:23.529Z,-0.10
2023-01-28T02:57:02.992Z,-0.07
2023-01-28T02:59:38.868Z,-0.01
2023-01-28T03:02:20.385Z,0.01
2023-01-28T03:04:55.910Z,0.02
2023-01-28T03:07:29.504Z,0.04
2023-01-28T03:10:04.308Z,0.01
2023-01-28T03:12:50.593Z,0.01
2023-01-28T03:15:36.304Z,0.02
2023-01-28T03:18:25.941Z,-0.02
2023-01-28T03:21:17.181Z,-0.01
2023-01-28T03:24:04.223Z,-0.02
2023-01-28T03:26:50.552Z,-0.08
2023-01-28T03:29:35.902Z,-0.15
2023-01-28T03:32:19.006Z,-0.11
2023-01-28T03:35:04.653Z,-0.09
2023-01-28T03:37:36.355Z,-0.09
2023-01-28T03:40:09.321Z,-0.07
2023-01-28T03:42:39.319Z,-0.03
2023-01-28T03:45:11.592Z,-0.01
2023-01-28T03:47:41.920Z,-0.04
2023-01-28T03:50:15.313Z,-0.07
2023-01-28T03:52:45.253Z,-0.09
2023-01-28T03:55:16.416Z,-0.08
2023-01-28T03:57:47.307Z,-0.04
2023-01-28T04:00:20.492Z,-0.01
2023-01-28T04:02:50.590Z,0.04
2023-01-28T04:05:23.644Z,0.04
2023-01-28T04:07:53.904Z,0.05
2023-01-28T04:10:24.503Z,0.05
2023-01-28T04:12:54.796Z,0.05
2023-01-28T04:15:25.063Z,0.05
2023-01-28T04:17:55.146Z,0.05
2023-01-28T04:20:28.972Z,0.06
2023-01-28T04:22:59.237Z,0.03
2023-01-28T04:25:29.640Z,0.02
2023-01-28T04:27:59.850Z,0.03
2023-01-28T04:30:31.549Z,0.05
2023-01-28T04:33:01.859Z,0.05
2023-01-28T04:35:35.012Z,0.05
2023-01-28T04:38:05.534Z,0.06
2023-01-28T04:40:36.485Z,0.07
2023-01-28T04:43:06.567Z,0.07
2023-01-28T04:45:37.401Z,0.07
2023-01-28T04:48:07.405Z,0.08
2023-01-28T04:50:40.247Z,0.07
2023-01-28T04:53:10.207Z,0.05
2023-01-28T04:55:40.742Z,0.07
2023-01-28T04:58:10.960Z,0.09
2023-01-28T05:00:41.182Z,0.11
2023-01-28T05:03:11.130Z,0.11
2023-01-28T05:05:44.064Z,0.07
2023-01-28T05:08:13.995Z,0.03
2023-01-28T05:10:44.285Z,-0.01
2023-01-28T05:13:14.671Z,-0.05
2023-01-28T05:15:45.255Z,-0.03
2023-01-28T05:18:15.195Z,0.01
2023-01-28T05:20:48.037Z,0.05
2023-01-28T05:23:17.989Z,0.09
2023-01-28T05:25:48.544Z,0.12
2023-01-28T05:28:18.576Z,0.15
2023-01-28T05:30:48.899Z,0.16
2023-01-28T05:33:19.169Z,0.17
2023-01-28T05:35:52.527Z,0.17
2023-01-28T05:38:22.793Z,0.17
2023-01-28T05:40:53.464Z,0.18
2023-01-28T05:43:23.611Z,0.19
2023-01-28T05:45:53.957Z,0.21
2023-01-28T05:48:24.127Z,0.23
2023-01-28T05:50:56.958Z,0.23
2023-01-28T05:53:27.021Z,0.23
2023-01-28T05:55:57.346Z,0.19
2023-01-28T05:58:29.153Z,0.17
2023-01-28T06:00:59.486Z,0.13
2023-01-28T06:03:29.417Z,0.17
2023-01-28T06:06:02.253Z,0.20
2023-01-28T06:08:32.330Z,0.24
2023-01-28T06:11:02.626Z,0.23
2023-01-28T06:13:32.632Z,0.26
2023-01-28T06:16:03.061Z,0.28
2023-01-28T06:18:33.225Z,0.28
2023-01-28T06:21:06.276Z,0.26
2023-01-28T06:23:36.259Z,0.26
2023-01-28T06:26:06.905Z,0.23
2023-01-28T06:28:36.903Z,0.23
2023-01-28T06:31:07.711Z,0.24
2023-01-28T06:33:38.039Z,0.27
2023-01-28T06:36:11.517Z,0.28
2023-01-28T06:38:41.479Z,0.30
2023-01-28T06:41:11.712Z,0.29
2023-01-28T06:43:41.817Z,0.31
2023-01-28T06:46:12.085Z,0.30
2023-01-28T06:48:42.042Z,0.28
2023-01-28T06:51:14.968Z,0.29
2023-01-28T06:53:46.114Z,0.31
2023-01-28T06:56:16.863Z,0.32
2023-01-28T06:58:46.756Z,0.34
2023-01-28T07:01:17.119Z,0.33
2023-01-28T07:03:47.234Z,0.35
2023-01-28T07:06:20.174Z,0.35
2023-01-28T07:08:50.132Z,0.36
2023-01-28T07:11:20.432Z,0.36
2023-01-28T07:13:50.783Z,0.39
2023-01-28T07:16:21.158Z,0.41
2023-01-28T07:18:51.288Z,0.43
2023-01-28T07:21:24.119Z,0.46
2023-01-28T07:23:54.213Z,0.47
2023-01-28T07:26:24.556Z,0.45
2023-01-28T07:28:54.594Z,0.43
2023-01-28T07:31:25.503Z,0.44
2023-01-28T07:33:55.492Z,0.42
2023-01-28T07:36:28.391Z,0.43
2023-01-28T07:38:58.429Z,0.44
2023-01-28T07:41:29.246Z,0.41
2023-01-28T07:43:59.723Z,0.40
2023-01-28T07:46:31.413Z,0.44
2023-01-28T07:49:01.771Z,0.46
2023-01-28T07:51:34.912Z,0.48
2023-01-28T07:54:05.196Z,0.48
2023-01-28T07:56:35.753Z,0.51
2023-01-28T07:59:06.175Z,0.53
2023-01-28T08:01:36.855Z,0.54
2023-01-28T08:04:07.719Z,0.54
2023-01-28T08:06:40.977Z,0.54
2023-01-28T08:09:11.534Z,0.54
2023-01-28T08:11:42.499Z,0.53
2023-01-28T08:14:13.393Z,0.49
2023-01-28T08:16:43.943Z,0.47
2023-01-28T08:19:14.240Z,0.47
2023-01-28T08:21:49.935Z,0.51
2023-01-28T08:24:20.594Z,0.49
2023-01-28T08:26:51.507Z,0.53
2023-01-28T08:29:22.044Z,0.54
2023-01-28T08:31:52.708Z,0.55
2023-01-28T08:34:23.265Z,0.56
2023-01-28T08:36:56.740Z,0.57
2023-01-28T08:39:26.738Z,0.57
2023-01-28T08:41:57.040Z,0.57
2023-01-28T08:44:27.035Z,0.61
2023-01-28T08:46:57.267Z,0.64
2023-01-28T08:49:27.616Z,0.67
2023-01-28T08:52:00.451Z,0.68
2023-01-28T08:54:30.397Z,0.66
2023-01-28T08:57:00.644Z,0.63
2023-01-28T08:59:30.721Z,0.63
2023-01-28T09:02:01.056Z,0.66
2023-01-28T09:04:31.173Z,0.68
2023-01-28T09:07:04.035Z,0.66
2023-01-28T09:09:34.146Z,0.68
2023-01-28T09:12:06.006Z,0.69
2023-01-28T09:14:36.044Z,0.73
2023-01-28T09:17:07.580Z,0.77
2023-01-28T09:19:37.578Z,0.79
2023-01-28T09:22:10.662Z,0.81
2023-01-28T09:24:40.717Z,0.84
2023-01-28T09:27:10.945Z,0.89
2023-01-28T09:29:40.995Z,0.92
2023-01-28T09:32:11.310Z,0.92
2023-01-28T09:34:41.305Z,0.93
2023-01-28T09:37:14.762Z,0.94
2023-01-28T09:39:44.708Z,0.95
2023-01-28T09:42:43.166Z,0.95
2023-01-28T09:45:17.871Z,0.96
2023-01-28T09:47:53.464Z,0.97
2023-01-28T09:50:29.294Z,0.99
2023-01-28T09:53:07.560Z,1.03
2023-01-28T09:55:40.945Z,1.04
2023-01-28T09:58:16.019Z,1.06
2023-01-28T10:00:54.219Z,1.06
2023-01-28T10:03:49.714Z,1.14
2023-01-28T10:06:28.752Z,1.17
2023-01-28T10:09:20.215Z,1.19
2023-01-28T10:12:06.413Z,1.10
2023-01-28T10:14:50.319Z,1.08
2023-01-28T10:17:25.485Z,0.97
2023-01-28T10:20:00.353Z,0.90
2023-01-28T10:22:33.693Z,0.89
2023-01-28T10:25:11.181Z,0.97
2023-01-28T10:27:41.361Z,1.02
2023-01-28T10:30:22.292Z,1.06
2023-01-28T10:32:56.168Z,1.05
2023-01-28T10:35:27.840Z,1.08
2023-01-28T10:38:06.563Z,1.14
2023-01-28T10:40:39.635Z,1.14
2023-01-28T10:43:09.682Z,1.17
2023-01-28T10:45:46.664Z,1.19
2023-01-28T10:48:24.088Z,1.14
2023-01-28T10:50:57.036Z,1.14
2023-01-28T10:53:38.465Z,1.15
2023-01-28T10:56:14.545Z,1.15
2023-01-28T10:59:00.669Z,1.20
2023-01-28T11:01:46.659Z,1.22
2023-01-28T11:04:25.205Z,1.25
2023-01-28T11:06:57.757Z,1.25
2023-01-28T11:09:29.411Z,1.29
2023-01-28T11:12:13.583Z,1.35
2023-01-28T11:14:53.176Z,1.38
2023-01-28T11:17:25.744Z,1.40
2023-01-28T11:19:57.800Z,1.40
2023-01-28T11:22:35.795Z,1.43
2023-01-28T11:25:17.204Z,1.45
2023-01-28T11:27:54.198Z,1.46
2023-01-28T11:30:27.210Z,1.48
2023-01-28T11:33:06.128Z,1.50
2023-01-28T11:35:36.166Z,1.50
2023-01-28T11:38:06.446Z,1.47
2023-01-28T11:40:36.420Z,1.49
2023-01-28T11:43:11.909Z,1.50
2023-01-28T11:45:49.190Z,1.47
2023-01-28T11:48:32.206Z,1.51
2023-01-28T11:51:07.784Z,1.54
2023-01-28T11:53:53.574Z,1.55
2023-01-28T11:56:42.572Z,1.56
2023-01-28T11:59:30.223Z,1.56
2023-01-28T12:02:10.997Z,1.53
2023-01-28T12:04:55.811Z,1.54
2023-01-28T12:07:44.123Z,1.63
2023-01-28T12:10:22.573Z,1.53
2023-01-28T12:13:07.009Z,1.43
2023-01-28T12:16:13.884Z,1.42
2023-01-28T12:19:06.010Z,1.41
2023-01-28T12:21:51.450Z,1.40
2023-01-28T12:24:37.819Z,1.27
2023-01-28T12:27:24.322Z,1.23
2023-01-28T12:30:03.888Z,1.27
2023-01-28T12:32:57.461Z,1.23
2023-01-28T12:35:35.113Z,1.25
2023-01-28T12:38:16.216Z,1.31
2023-01-28T12:41:01.324Z,1.35
2023-01-28T12:43:53.692Z,1.46
2023-01-28T12:46:45.300Z,1.46
2023-01-28T12:49:24.016Z,1.41
2023-01-28T12:52:04.397Z,1.41
2023-01-28T12:54:43.915Z,1.39
2023-01-28T12:57:21.486Z,1.35
2023-01-28T12:59:56.915Z,1.38
2023-01-28T13:02:31.370Z,1.39
2023-01-28T13:05:11.438Z,1.37
2023-01-28T13:07:45.161Z,1.40
2023-01-28T13:10:24.738Z,1.34
2023-01-28T13:12:56.240Z,1.36
2023-01-28T13:15:27.495Z,1.38
2023-01-28T13:17:58.951Z,1.38
2023-01-28T13:20:41.079Z,1.40
2023-01-28T13:23:26.986Z,1.16
2023-01-28T13:25:58.505Z,1.26
2023-01-28T13:28:31.714Z,1.31
2023-01-28T13:31:07.755Z,1.24
2023-01-28T13:33:40.469Z,1.31
2023-01-28T13:36:27.408Z,1.42
2023-01-28T13:39:06.854Z,1.54
2023-01-28T13:41:41.265Z,1.53
2023-01-28T13:44:22.117Z,1.51
2023-01-28T13:46:52.451Z,1.43
2023-01-28T13:49:28.934Z,1.52
2023-01-28T13:52:10.704Z,1.17
2023-01-28T13:54:46.259Z,0.97
2023-01-28T13:57:50.001Z,0.90
2023-01-28T14:00:28.115Z,0.98
2023-01-28T14:03:39.927Z,1.11
2023-01-28T14:06:50.937Z,1.09
2023-01-28T14:09:41.019Z,1.08
2023-01-28T14:12:47.629Z,1.06
2023-01-28T14:15:35.584Z,1.03
2023-01-28T14:18:18.662Z,1.06
2023-01-28T14:20:49.330Z,1.05
2023-01-28T14:23:22.170Z,1.09
2023-01-28T14:26:15.903Z,1.14
2023-01-28T14:28:56.520Z,1.14
2023-01-28T14:31:34.099Z,1.07
2023-01-28T14:34:14.058Z,1.06
2023-01-28T14:36:47.622Z,1.08
2023-01-28T14:39:22.467Z,1.03
2023-01-28T14:41:58.913Z,0.98
2023-01-28T14:44:36.612Z,1.04
2023-01-28T14:47:42.583Z,1.12
2023-01-28T14:50:29.191Z,1.13
2023-01-28T14:53:27.590Z,1.12
2023-01-28T14:56:08.627Z,1.11
2023-01-28T14:58:46.687Z,1.21
2023-01-28T15:01:25.664Z,1.22
2023-01-28T15:03:57.479Z,1.13
2023-01-28T15:06:33.257Z,1.00
2023-01-28T15:09:16.837Z,0.76
2023-01-28T15:11:50.759Z,0.90
2023-01-28T15:14:30.355Z,0.97
2023-01-28T15:17:01.687Z,1.06
2023-01-28T15:19:35.729Z,1.04
2023-01-28T15:22:09.040Z,1.04
2023-01-28T15:24:47.635Z,0.97
2023-01-28T15:27:24.097Z,0.95
2023-01-28T15:30:02.615Z,1.00
2023-01-28T15:32:34.116Z,0.96
2023-01-28T15:35:12.832Z,0.95
2023-01-28T15:37:43.139Z,0.93
2023-01-28T15:40:22.360Z,0.99
2023-01-28T15:42:54.972Z,0.96
2023-01-28T15:45:30.885Z,1.11
2023-01-28T15:48:09.031Z,1.18
2023-01-28T15:50:39.376Z,1.11
2023-01-28T15:53:12.149Z,1.02
2023-01-28T15:55:46.184Z,0.99
2023-01-28T15:58:21.499Z,1.03
2023-01-28T16:01:06.186Z,1.07
2023-01-28T16:03:39.830Z,1.05
2023-01-28T16:06:12.334Z,0.83
2023-01-28T16:08:45.033Z,0.90
2023-01-28T16:11:24.940Z,0.97
2023-01-28T16:13:56.275Z,1.02
2023-01-28T16:16:36.181Z,0.91
2023-01-28T16:19:09.184Z,0.95
2023-01-28T16:21:46.855Z,0.98
2023-01-28T16:24:26.601Z,0.99
2023-01-28T16:27:01.146Z,0.98
2023-01-28T16:29:32.843Z,0.94
2023-01-28T16:32:06.389Z,0.96
2023-01-28T16:34:44.999Z,0.93
2023-01-28T16:37:16.013Z,0.96
2023-01-28T16:39:45.968Z,0.96
2023-01-28T16:42:16.703Z,0.98
2023-01-28T16:44:46.904Z,0.97
2023-01-28T16:47:19.849Z,0.94
2023-01-28T16:49:49.999Z,0.95
2023-01-28T16:52:21.074Z,0.93
2023-01-28T16:54:51.287Z,0.94
2023-01-28T16:57:23.269Z,0.91
2023-01-28T16:59:53.493Z,0.88
2023-01-28T17:02:26.679Z,0.80
2023-01-28T17:04:56.915Z,0.73
2023-01-28T17:07:27.280Z,0.73
2023-01-28T17:09:57.690Z,0.76
2023-01-28T17:12:30.867Z,0.72
2023-01-28T17:15:01.137Z,0.77
2023-01-28T17:17:34.382Z,0.80
2023-01-28T17:20:04.832Z,0.71
2023-01-28T17:22:35.490Z,0.64
2023-01-28T17:25:05.944Z,0.59
2023-01-28T17:27:36.627Z,0.64
2023-01-28T17:30:08.041Z,0.61
2023-01-28T17:32:41.010Z,0.58
2023-01-28T17:35:12.349Z,0.57
2023-01-28T17:37:43.149Z,0.62
2023-01-28T17:40:15.252Z,0.61
2023-01-28T17:42:45.744Z,0.59
2023-01-28T17:45:17.467Z,0.63
2023-01-28T17:47:50.767Z,0.65
2023-01-28T17:50:20.756Z,0.66
2023-01-28T17:52:51.155Z,0.65
2023-01-28T17:55:21.149Z,0.62
2023-01-28T17:57:51.474Z,0.60
2023-01-28T18:00:23.194Z,0.62
2023-01-28T18:02:56.425Z,0.47
2023-01-28T18:05:27.202Z,0.42
2023-01-28T18:07:57.663Z,0.46
2023-01-28T18:10:27.798Z,0.41
2023-01-28T18:13:08.681Z,0.46
2023-01-28T18:15:39.058Z,0.50
2023-01-28T18:18:12.207Z,0.60
2023-01-28T18:20:42.681Z,0.63
2023-01-28T18:23:15.210Z,0.57
2023-01-28T18:25:45.118Z,0.55
2023-01-28T18:28:15.452Z,0.49
2023-01-28T18:30:45.684Z,0.47
2023-01-28T18:33:22.600Z,0.31
2023-01-28T18:35:52.710Z,0.29
2023-01-28T18:38:22.984Z,0.27
2023-01-28T18:41:00.282Z,0.15
2023-01-28T18:43:32.668Z,0.02
2023-01-28T18:46:02.681Z,-0.02
2023-01-28T18:48:35.596Z,0.07
2023-01-28T18:51:06.579Z,-0.01
2023-01-28T18:53:37.664Z,0.08
2023-01-28T18:56:09.744Z,0.04
2023-01-28T18:58:40.157Z,-0.15
2023-01-28T19:01:11.421Z,-0.19
2023-01-28T19:03:44.877Z,-0.18
2023-01-28T19:06:15.725Z,-0.15
2023-01-28T19:08:46.065Z,-0.13
2023-01-28T19:11:16.027Z,-0.13
2023-01-28T19:13:46.307Z,-0.10
2023-01-28T19:16:16.334Z,-0.10
2023-01-28T19:18:54.358Z,-0.09
2023-01-28T19:21:25.146Z,-0.16
2023-01-28T19:23:59.320Z,-0.16
2023-01-28T19:26:30.776Z,-0.24
2023-01-28T19:29:01.627Z,-0.35
2023-01-28T19:31:32.145Z,-0.40
2023-01-28T19:34:05.759Z,-0.36
2023-01-28T19:36:37.185Z,-0.43
2023-01-28T19:39:10.463Z,-0.46
2023-01-28T19:41:40.851Z,-0.46
2023-01-28T19:44:12.484Z,-0.39
2023-01-28T19:46:43.280Z,-0.38
2023-01-28T19:49:16.565Z,-0.36
2023-01-28T19:51:46.807Z,-0.44
2023-01-28T19:54:17.385Z,-0.48
2023-01-28T19:56:47.656Z,-0.53
2023-01-28T19:59:19.595Z,-0.44
2023-01-28T20:01:49.932Z,-0.46
2023-01-28T20:04:23.170Z,-0.50
2023-01-28T20:06:53.461Z,-0.52
2023-01-28T20:09:24.364Z,-0.63
2023-01-28T20:11:54.560Z,-0.60
2023-01-28T20:14:25.214Z,-0.63
2023-01-28T20:16:55.486Z,-0.57
2023-01-28T20:19:28.767Z,-0.57
2023-01-28T20:21:59.107Z,-0.52
2023-01-28T20:24:29.792Z,-0.55
2023-01-28T20:27:00.122Z,-0.68
2023-01-28T20:29:30.788Z,-0.67
2023-01-28T20:32:15.776Z,-0.65
2023-01-28T20:34:51.539Z,-0.68
2023-01-28T20:37:22.268Z,-0.67
2023-01-28T20:39:52.995Z,-0.68
2023-01-28T20:42:23.010Z,-0.64
2023-01-28T20:44:53.314Z,-0.74
2023-01-28T20:47:23.358Z,-0.73
2023-01-28T20:49:56.240Z,-0.78
2023-01-28T20:52:26.219Z,-0.85
2023-01-28T20:54:56.600Z,-0.88
2023-01-28T20:57:26.679Z,-0.93
2023-01-28T20:59:57.071Z,-0.95
2023-01-28T21:02:27.281Z,-1.06
2023-01-28T21:05:00.255Z,-1.03
2023-01-28T21:07:30.276Z,-1.14
2023-01-28T21:10:02.306Z,-1.09
2023-01-28T21:12:32.664Z,-1.14
2023-01-28T21:15:02.988Z,-1.19
2023-01-28T21:17:33.432Z,-1.21
2023-01-28T21:20:07.304Z,-1.17
2023-01-28T21:22:37.400Z,-1.29
2023-01-28T21:25:08.892Z,-1.23
2023-01-28T21:27:38.916Z,-1.23
2023-01-28T21:30:11.337Z,-1.15
2023-01-28T21:32:41.365Z,-1.18
2023-01-28T21:35:14.760Z,-1.28
2023-01-28T21:37:48.391Z,-1.36
2023-01-28T21:40:18.927Z,-1.32
2023-01-28T21:42:48.825Z,-1.40
2023-01-28T21:45:19.331Z,-1.40
2023-01-28T21:47:49.292Z,-1.43
2023-01-28T21:50:22.491Z,-1.52
2023-01-28T21:52:52.992Z,-1.48
2023-01-28T21:55:23.291Z,-1.49
2023-01-28T21:58:13.506Z,-1.50
2023-01-28T22:00:43.820Z,-1.54
2023-01-28T22:03:13.674Z,-1.53
2023-01-28T22:05:46.641Z,-1.54
2023-01-28T22:08:17.657Z,-1.66
2023-01-28T22:10:48.210Z,-1.58
2023-01-28T22:13:18.218Z,-1.58
2023-01-28T22:15:48.881Z,-1.52
2023-01-28T22:18:18.876Z,-1.54
2023-01-28T22:20:59.242Z,-1.62
2023-01-28T22:23:29.726Z,-1.67
2023-01-28T22:26:01.132Z,-1.65
2023-01-28T22:28:31.762Z,-1.74
2023-01-28T22:31:09.031Z,-1.80
2023-01-28T22:33:39.786Z,-1.79
2023-01-28T22:36:16.521Z,-1.87
2023-01-28T22:38:48.031Z,-1.91
2023-01-28T22:41:23.183Z,-1.86
2023-01-28T22:43:54.269Z,-1.87
2023-01-28T22:46:26.376Z,-1.92
2023-01-28T22:48:57.074Z,-1.93
2023-01-28T22:51:33.986Z,-1.91
2023-01-28T22:54:04.399Z,-1.97
2023-01-28T22:56:35.221Z,-1.95
2023-01-28T22:59:07.206Z,-1.91
2023-01-28T23:01:37.892Z,-1.82
2023-01-28T23:04:08.156Z,-1.92
2023-01-28T23:06:41.666Z,-1.95
2023-01-28T23:09:11.703Z,-2.00
2023-01-28T23:11:42.432Z,-2.02
2023-01-28T23:14:24.898Z,-1.99
2023-01-28T23:17:07.668Z,-1.99
2023-01-28T23:19:50.874Z,-1.96
2023-01-28T23:22:40.184Z,-2.05
2023-01-28T23:25:10.914Z,-1.94
2023-01-28T23:27:41.737Z,-1.84
2023-01-28T23:30:14.744Z,-1.76
2023-01-28T23:32:49.628Z,-1.80
2023-01-28T23:35:21.339Z,-1.76
2023-01-28T23:37:55.322Z,-1.84
2023-01-28T23:40:27.145Z,-1.78
2023-01-28T23:42:58.324Z,-1.86
2023-01-28T23:45:28.596Z,-1.89
2023-01-28T23:47:58.924Z,-1.84
2023-01-28T23:50:28.925Z,-1.86
2023-01-28T23:53:04.675Z,-1.83
2023-01-28T23:55:34.577Z,-1.92
2023-01-28T23:58:05.061Z,-1.94
